sensor_id;sensor_type;location;lat;lon;timestamp;P1;durP1;ratioP1;P2;durP2;ratioP2
20375;SDS011;10347;51.828;6.466;2023-07-28T00:01:25;2.90;;;2.70;;
20375;SDS011;10347;51.828;6.466;2023-07-28T00:03:51;3.00;;;2.85;;
20375;SDS011;10347;51.828;6.466;2023-07-28T00:06:17;2.38;;;2.28;;
20375;SDS011;10347;51.828;6.466;2023-07-28T00:08:42;2.55;;;2.15;;
20375;SDS011;10347;51.828;6.466;2023-07-28T00:11:11;2.50;;;2.30;;
20375;SDS011;10347;51.828;6.466;2023-07-28T00:13:38;2.72;;;2.55;;
20375;SDS011;10347;51.828;6.466;2023-07-28T00:16:04;2.75;;;2.65;;
20375;SDS011;10347;51.828;6.466;2023-07-28T00:18:30;2.38;;;2.28;;
20375;SDS011;10347;51.828;6.466;2023-07-28T00:20:56;2.30;;;2.20;;
20375;SDS011;10347;51.828;6.466;2023-07-28T00:23:22;2.28;;;2.17;;
20375;SDS011;10347;51.828;6.466;2023-07-28T00:25:47;2.63;;;2.20;;
20375;SDS011;10347;51.828;6.466;2023-07-28T00:28:13;2.40;;;2.30;;
20375;SDS011;10347;51.828;6.466;2023-07-28T00:30:39;2.83;;;2.50;;
20375;SDS011;10347;51.828;6.466;2023-07-28T00:33:04;2.40;;;2.30;;
20375;SDS011;10347;51.828;6.466;2023-07-28T00:35:30;3.55;;;2.55;;
20375;SDS011;10347;51.828;6.466;2023-07-28T00:37:56;2.50;;;2.40;;
20375;SDS011;10347;51.828;6.466;2023-07-28T00:40:22;2.30;;;2.20;;
20375;SDS011;10347;51.828;6.466;2023-07-28T00:42:48;2.40;;;2.30;;
20375;SDS011;10347;51.828;6.466;2023-07-28T00:45:13;4.15;;;2.38;;
20375;SDS011;10347;51.828;6.466;2023-07-28T00:47:40;2.30;;;2.20;;
20375;SDS011;10347;51.828;6.466;2023-07-28T00:50:06;2.55;;;2.42;;
20375;SDS011;10347;51.828;6.466;2023-07-28T00:52:33;2.50;;;2.30;;
20375;SDS011;10347;51.828;6.466;2023-07-28T00:55:00;2.72;;;2.63;;
20375;SDS011;10347;51.828;6.466;2023-07-28T00:57:25;2.80;;;2.60;;
20375;SDS011;10347;51.828;6.466;2023-07-28T00:59:51;3.30;;;3.10;;
20375;SDS011;10347;51.828;6.466;2023-07-28T01:02:18;2.95;;;2.75;;
20375;SDS011;10347;51.828;6.466;2023-07-28T01:04:44;3.17;;;3.05;;
20375;SDS011;10347;51.828;6.466;2023-07-28T01:07:13;3.92;;;3.55;;
20375;SDS011;10347;51.828;6.466;2023-07-28T01:09:52;3.40;;;3.10;;
20375;SDS011;10347;51.828;6.466;2023-07-28T01:12:21;3.88;;;3.53;;
20375;SDS011;10347;51.828;6.466;2023-07-28T01:14:49;3.60;;;3.35;;
20375;SDS011;10347;51.828;6.466;2023-07-28T01:17:14;3.80;;;3.20;;
20375;SDS011;10347;51.828;6.466;2023-07-28T01:19:40;3.60;;;3.30;;
20375;SDS011;10347;51.828;6.466;2023-07-28T01:22:16;3.55;;;3.35;;
20375;SDS011;10347;51.828;6.466;2023-07-28T01:25:05;3.75;;;3.45;;
20375;SDS011;10347;51.828;6.466;2023-07-28T01:27:35;3.60;;;3.40;;
20375;SDS011;10347;51.828;6.466;2023-07-28T01:30:02;4.45;;;4.15;;
20375;SDS011;10347;51.828;6.466;2023-07-28T01:32:28;4.65;;;4.25;;
20375;SDS011;10347;51.828;6.466;2023-07-28T01:34:54;4.13;;;3.83;;
20375;SDS011;10347;51.828;6.466;2023-07-28T01:37:19;4.00;;;3.70;;
20375;SDS011;10347;51.828;6.466;2023-07-28T01:39:45;5.25;;;4.20;;
20375;SDS011;10347;51.828;6.466;2023-07-28T01:42:10;4.65;;;4.25;;
20375;SDS011;10347;51.828;6.466;2023-07-28T01:44:36;4.15;;;3.85;;
20375;SDS011;10347;51.828;6.466;2023-07-28T01:47:01;3.63;;;3.42;;
20375;SDS011;10347;51.828;6.466;2023-07-28T01:49:27;3.92;;;3.67;;
20375;SDS011;10347;51.828;6.466;2023-07-28T01:51:52;4.28;;;3.97;;
20375;SDS011;10347;51.828;6.466;2023-07-28T01:54:18;4.72;;;3.90;;
20375;SDS011;10347;51.828;6.466;2023-07-28T01:56:43;4.00;;;3.70;;
20375;SDS011;10347;51.828;6.466;2023-07-28T01:59:09;4.28;;;3.97;;
20375;SDS011;10347;51.828;6.466;2023-07-28T02:01:35;4.00;;;3.70;;
20375;SDS011;10347;51.828;6.466;2023-07-28T02:04:00;4.55;;;4.15;;
20375;SDS011;10347;51.828;6.466;2023-07-28T02:06:26;4.97;;;4.57;;
20375;SDS011;10347;51.828;6.466;2023-07-28T02:08:52;5.32;;;4.47;;
20375;SDS011;10347;51.828;6.466;2023-07-28T02:11:18;4.28;;;3.97;;
20375;SDS011;10347;51.828;6.466;2023-07-28T02:13:43;4.38;;;4.07;;
20375;SDS011;10347;51.828;6.466;2023-07-28T02:16:09;4.70;;;4.40;;
20375;SDS011;10347;51.828;6.466;2023-07-28T02:18:34;4.20;;;3.85;;
20375;SDS011;10347;51.828;6.466;2023-07-28T02:21:00;6.78;;;4.60;;
20375;SDS011;10347;51.828;6.466;2023-07-28T02:23:25;4.00;;;3.70;;
20375;SDS011;10347;51.828;6.466;2023-07-28T02:25:51;4.88;;;4.47;;
20375;SDS011;10347;51.828;6.466;2023-07-28T02:28:16;5.20;;;4.80;;
20375;SDS011;10347;51.828;6.466;2023-07-28T02:30:42;5.72;;;5.18;;
20375;SDS011;10347;51.828;6.466;2023-07-28T02:33:07;5.15;;;4.75;;
20375;SDS011;10347;51.828;6.466;2023-07-28T02:35:33;4.70;;;4.40;;
20375;SDS011;10347;51.828;6.466;2023-07-28T02:37:59;4.55;;;4.15;;
20375;SDS011;10347;51.828;6.466;2023-07-28T02:40:25;4.55;;;4.15;;
20375;SDS011;10347;51.828;6.466;2023-07-28T02:42:50;4.72;;;4.25;;
20375;SDS011;10347;51.828;6.466;2023-07-28T02:45:18;4.25;;;3.95;;
20375;SDS011;10347;51.828;6.466;2023-07-28T02:47:44;4.55;;;4.15;;
20375;SDS011;10347;51.828;6.466;2023-07-28T02:50:10;4.60;;;4.28;;
20375;SDS011;10347;51.828;6.466;2023-07-28T02:52:35;5.55;;;5.05;;
20375;SDS011;10347;51.828;6.466;2023-07-28T02:55:01;4.80;;;4.40;;
20375;SDS011;10347;51.828;6.466;2023-07-28T02:57:27;5.30;;;4.43;;
20375;SDS011;10347;51.828;6.466;2023-07-28T02:59:52;5.00;;;4.60;;
20375;SDS011;10347;51.828;6.466;2023-07-28T03:02:18;4.82;;;4.43;;
20375;SDS011;10347;51.828;6.466;2023-07-28T03:04:43;5.88;;;5.25;;
20375;SDS011;10347;51.828;6.466;2023-07-28T03:07:09;4.68;;;4.28;;
20375;SDS011;10347;51.828;6.466;2023-07-28T03:09:34;4.90;;;4.50;;
20375;SDS011;10347;51.828;6.466;2023-07-28T03:12:00;5.32;;;4.90;;
20375;SDS011;10347;51.828;6.466;2023-07-28T03:14:25;4.93;;;4.53;;
20375;SDS011;10347;51.828;6.466;2023-07-28T03:16:51;4.72;;;4.32;;
20375;SDS011;10347;51.828;6.466;2023-07-28T03:19:17;5.35;;;4.85;;
20375;SDS011;10347;51.828;6.466;2023-07-28T03:21:42;5.15;;;4.40;;
20375;SDS011;10347;51.828;6.466;2023-07-28T03:24:08;4.95;;;4.53;;
20375;SDS011;10347;51.828;6.466;2023-07-28T03:26:33;5.82;;;5.28;;
20375;SDS011;10347;51.828;6.466;2023-07-28T03:28:59;6.10;;;5.50;;
20375;SDS011;10347;51.828;6.466;2023-07-28T03:31:24;5.65;;;5.15;;
20375;SDS011;10347;51.828;6.466;2023-07-28T03:33:50;5.45;;;4.95;;
20375;SDS011;10347;51.828;6.466;2023-07-28T03:36:15;6.10;;;5.38;;
20375;SDS011;10347;51.828;6.466;2023-07-28T03:38:41;6.22;;;5.63;;
20375;SDS011;10347;51.828;6.466;2023-07-28T03:41:07;6.05;;;5.45;;
20375;SDS011;10347;51.828;6.466;2023-07-28T03:43:33;5.47;;;4.97;;
20375;SDS011;10347;51.828;6.466;2023-07-28T03:45:59;6.10;;;5.43;;
20375;SDS011;10347;51.828;6.466;2023-07-28T03:48:24;7.32;;;4.75;;
20375;SDS011;10347;51.828;6.466;2023-07-28T03:50:50;4.50;;;4.07;;
20375;SDS011;10347;51.828;6.466;2023-07-28T03:53:15;4.47;;;4.07;;
20375;SDS011;10347;51.828;6.466;2023-07-28T03:55:41;5.43;;;4.95;;
20375;SDS011;10347;51.828;6.466;2023-07-28T03:58:06;7.03;;;5.28;;
20375;SDS011;10347;51.828;6.466;2023-07-28T04:00:32;5.63;;;5.15;;
20375;SDS011;10347;51.828;6.466;2023-07-28T04:02:58;5.88;;;5.28;;
20375;SDS011;10347;51.828;6.466;2023-07-28T04:05:23;6.45;;;5.70;;
20375;SDS011;10347;51.828;6.466;2023-07-28T04:07:49;5.85;;;5.20;;
20375;SDS011;10347;51.828;6.466;2023-07-28T04:10:14;6.10;;;5.50;;
20375;SDS011;10347;51.828;6.466;2023-07-28T04:12:40;7.10;;;5.80;;
20375;SDS011;10347;51.828;6.466;2023-07-28T04:15:06;6.28;;;5.53;;
20375;SDS011;10347;51.828;6.466;2023-07-28T04:17:32;9.38;;;6.15;;
20375;SDS011;10347;51.828;6.466;2023-07-28T04:19:57;5.82;;;5.28;;
20375;SDS011;10347;51.828;6.466;2023-07-28T04:22:23;6.13;;;5.45;;
20375;SDS011;10347;51.828;6.466;2023-07-28T04:24:48;8.15;;;5.70;;
20375;SDS011;10347;51.828;6.466;2023-07-28T04:27:14;6.70;;;6.03;;
20375;SDS011;10347;51.828;6.466;2023-07-28T04:29:40;8.60;;;6.03;;
20375;SDS011;10347;51.828;6.466;2023-07-28T04:32:06;7.50;;;6.70;;
20375;SDS011;10347;51.828;6.466;2023-07-28T04:34:34;6.00;;;5.38;;
20375;SDS011;10347;51.828;6.466;2023-07-28T04:37:00;8.13;;;7.03;;
20375;SDS011;10347;51.828;6.466;2023-07-28T04:39:25;6.18;;;5.55;;
20375;SDS011;10347;51.828;6.466;2023-07-28T04:41:51;8.63;;;6.30;;
20375;SDS011;10347;51.828;6.466;2023-07-28T04:44:17;10.00;;;6.53;;
20375;SDS011;10347;51.828;6.466;2023-07-28T04:46:43;9.40;;;6.25;;
20375;SDS011;10347;51.828;6.466;2023-07-28T04:49:08;6.68;;;5.88;;
20375;SDS011;10347;51.828;6.466;2023-07-28T04:51:34;7.50;;;5.95;;
20375;SDS011;10347;51.828;6.466;2023-07-28T04:53:59;7.75;;;5.65;;
20375;SDS011;10347;51.828;6.466;2023-07-28T04:56:25;7.05;;;6.13;;
20375;SDS011;10347;51.828;6.466;2023-07-28T04:58:50;8.40;;;6.47;;
20375;SDS011;10347;51.828;6.466;2023-07-28T05:01:16;9.15;;;6.35;;
20375;SDS011;10347;51.828;6.466;2023-07-28T05:03:41;6.75;;;5.55;;
20375;SDS011;10347;51.828;6.466;2023-07-28T05:06:07;6.68;;;5.97;;
20375;SDS011;10347;51.828;6.466;2023-07-28T05:08:32;8.90;;;6.30;;
20375;SDS011;10347;51.828;6.466;2023-07-28T05:10:58;7.97;;;5.82;;
20375;SDS011;10347;51.828;6.466;2023-07-28T05:13:23;9.07;;;6.53;;
20375;SDS011;10347;51.828;6.466;2023-07-28T05:15:49;8.15;;;6.00;;
20375;SDS011;10347;51.828;6.466;2023-07-28T05:18:14;8.52;;;6.22;;
20375;SDS011;10347;51.828;6.466;2023-07-28T05:20:40;9.35;;;5.88;;
20375;SDS011;10347;51.828;6.466;2023-07-28T05:23:05;7.63;;;6.28;;
20375;SDS011;10347;51.828;6.466;2023-07-28T05:25:31;8.50;;;6.25;;
20375;SDS011;10347;51.828;6.466;2023-07-28T05:27:57;10.23;;;7.30;;
20375;SDS011;10347;51.828;6.466;2023-07-28T05:30:22;8.25;;;6.25;;
20375;SDS011;10347;51.828;6.466;2023-07-28T05:32:48;7.75;;;6.10;;
20375;SDS011;10347;51.828;6.466;2023-07-28T05:35:14;10.32;;;6.93;;
20375;SDS011;10347;51.828;6.466;2023-07-28T05:37:40;7.53;;;6.43;;
20375;SDS011;10347;51.828;6.466;2023-07-28T05:40:06;10.98;;;6.80;;
20375;SDS011;10347;51.828;6.466;2023-07-28T05:42:32;11.60;;;7.72;;
20375;SDS011;10347;51.828;6.466;2023-07-28T05:44:58;9.98;;;7.05;;
20375;SDS011;10347;51.828;6.466;2023-07-28T05:47:24;15.88;;;8.25;;
20375;SDS011;10347;51.828;6.466;2023-07-28T05:49:50;9.50;;;7.20;;
20375;SDS011;10347;51.828;6.466;2023-07-28T05:52:18;11.27;;;7.68;;
20375;SDS011;10347;51.828;6.466;2023-07-28T05:54:44;9.55;;;7.35;;
20375;SDS011;10347;51.828;6.466;2023-07-28T05:57:10;10.98;;;7.57;;
20375;SDS011;10347;51.828;6.466;2023-07-28T05:59:35;10.43;;;7.50;;
20375;SDS011;10347;51.828;6.466;2023-07-28T06:02:01;12.30;;;7.65;;
20375;SDS011;10347;51.828;6.466;2023-07-28T06:04:27;13.57;;;8.25;;
20375;SDS011;10347;51.828;6.466;2023-07-28T06:07:10;13.60;;;8.32;;
20375;SDS011;10347;51.828;6.466;2023-07-28T06:09:36;10.23;;;7.55;;
20375;SDS011;10347;51.828;6.466;2023-07-28T06:12:02;11.07;;;7.82;;
20375;SDS011;10347;51.828;6.466;2023-07-28T06:14:28;10.90;;;7.63;;
20375;SDS011;10347;51.828;6.466;2023-07-28T06:16:54;12.23;;;8.80;;
20375;SDS011;10347;51.828;6.466;2023-07-28T06:19:20;14.98;;;8.90;;
20375;SDS011;10347;51.828;6.466;2023-07-28T06:21:49;12.77;;;8.27;;
20375;SDS011;10347;51.828;6.466;2023-07-28T06:24:15;13.68;;;8.48;;
20375;SDS011;10347;51.828;6.466;2023-07-28T06:26:41;11.65;;;8.30;;
20375;SDS011;10347;51.828;6.466;2023-07-28T06:29:07;15.32;;;9.00;;
20375;SDS011;10347;51.828;6.466;2023-07-28T06:31:32;18.20;;;9.07;;
20375;SDS011;10347;51.828;6.466;2023-07-28T06:33:58;13.43;;;7.75;;
20375;SDS011;10347;51.828;6.466;2023-07-28T06:36:24;10.13;;;7.22;;
20375;SDS011;10347;51.828;6.466;2023-07-28T06:38:50;13.98;;;8.57;;
20375;SDS011;10347;51.828;6.466;2023-07-28T06:41:17;11.82;;;8.05;;
20375;SDS011;10347;51.828;6.466;2023-07-28T06:43:43;14.82;;;8.57;;
20375;SDS011;10347;51.828;6.466;2023-07-28T06:46:09;13.23;;;8.68;;
20375;SDS011;10347;51.828;6.466;2023-07-28T06:48:34;14.13;;;9.68;;
20375;SDS011;10347;51.828;6.466;2023-07-28T06:51:00;11.50;;;7.93;;
20375;SDS011;10347;51.828;6.466;2023-07-28T06:53:25;11.57;;;7.85;;
20375;SDS011;10347;51.828;6.466;2023-07-28T06:55:51;10.65;;;7.22;;
20375;SDS011;10347;51.828;6.466;2023-07-28T06:58:17;10.38;;;7.63;;
20375;SDS011;10347;51.828;6.466;2023-07-28T07:00:43;9.85;;;7.45;;
20375;SDS011;10347;51.828;6.466;2023-07-28T07:03:09;12.05;;;8.55;;
20375;SDS011;10347;51.828;6.466;2023-07-28T07:05:34;11.30;;;8.00;;
20375;SDS011;10347;51.828;6.466;2023-07-28T07:08:00;11.65;;;8.48;;
20375;SDS011;10347;51.828;6.466;2023-07-28T07:10:26;12.32;;;8.55;;
20375;SDS011;10347;51.828;6.466;2023-07-28T07:12:52;11.55;;;8.32;;
20375;SDS011;10347;51.828;6.466;2023-07-28T07:15:17;12.02;;;8.48;;
20375;SDS011;10347;51.828;6.466;2023-07-28T07:17:43;11.38;;;8.82;;
20375;SDS011;10347;51.828;6.466;2023-07-28T07:20:08;11.88;;;8.80;;
20375;SDS011;10347;51.828;6.466;2023-07-28T07:22:35;12.82;;;7.43;;
20375;SDS011;10347;51.828;6.466;2023-07-28T07:25:01;11.50;;;7.38;;
20375;SDS011;10347;51.828;6.466;2023-07-28T07:27:29;9.80;;;7.75;;
20375;SDS011;10347;51.828;6.466;2023-07-28T07:29:54;10.65;;;7.70;;
20375;SDS011;10347;51.828;6.466;2023-07-28T07:32:20;7.47;;;6.32;;
20375;SDS011;10347;51.828;6.466;2023-07-28T07:34:45;7.93;;;6.50;;
20375;SDS011;10347;51.828;6.466;2023-07-28T07:37:11;8.88;;;7.25;;
20375;SDS011;10347;51.828;6.466;2023-07-28T07:39:36;13.68;;;7.95;;
20375;SDS011;10347;51.828;6.466;2023-07-28T07:42:02;12.88;;;8.05;;
20375;SDS011;10347;51.828;6.466;2023-07-28T07:44:27;8.60;;;6.63;;
20375;SDS011;10347;51.828;6.466;2023-07-28T07:46:53;11.20;;;7.85;;
20375;SDS011;10347;51.828;6.466;2023-07-28T07:49:19;9.77;;;7.38;;
20375;SDS011;10347;51.828;6.466;2023-07-28T07:51:45;10.52;;;7.80;;
20375;SDS011;10347;51.828;6.466;2023-07-28T07:54:10;11.13;;;7.97;;
20375;SDS011;10347;51.828;6.466;2023-07-28T07:56:40;14.77;;;9.05;;
20375;SDS011;10347;51.828;6.466;2023-07-28T07:59:06;14.10;;;8.95;;
20375;SDS011;10347;51.828;6.466;2023-07-28T08:01:32;9.00;;;6.90;;
20375;SDS011;10347;51.828;6.466;2023-07-28T08:03:57;12.88;;;8.60;;
20375;SDS011;10347;51.828;6.466;2023-07-28T08:06:23;14.18;;;8.65;;
20375;SDS011;10347;51.828;6.466;2023-07-28T08:08:48;12.60;;;8.23;;
20375;SDS011;10347;51.828;6.466;2023-07-28T08:11:15;10.57;;;7.70;;
20375;SDS011;10347;51.828;6.466;2023-07-28T08:13:41;9.27;;;7.95;;
20375;SDS011;10347;51.828;6.466;2023-07-28T08:16:07;11.43;;;8.20;;
20375;SDS011;10347;51.828;6.466;2023-07-28T08:18:32;12.43;;;8.25;;
20375;SDS011;10347;51.828;6.466;2023-07-28T08:20:58;11.65;;;9.00;;
20375;SDS011;10347;51.828;6.466;2023-07-28T08:23:24;11.60;;;8.98;;
20375;SDS011;10347;51.828;6.466;2023-07-28T08:25:50;13.57;;;10.07;;
20375;SDS011;10347;51.828;6.466;2023-07-28T08:28:15;14.73;;;9.52;;
20375;SDS011;10347;51.828;6.466;2023-07-28T08:30:41;11.43;;;8.55;;
20375;SDS011;10347;51.828;6.466;2023-07-28T08:33:06;11.43;;;8.50;;
20375;SDS011;10347;51.828;6.466;2023-07-28T08:35:32;11.43;;;8.18;;
20375;SDS011;10347;51.828;6.466;2023-07-28T08:37:57;9.75;;;8.45;;
20375;SDS011;10347;51.828;6.466;2023-07-28T08:40:23;13.07;;;9.05;;
20375;SDS011;10347;51.828;6.466;2023-07-28T08:42:49;11.40;;;8.25;;
20375;SDS011;10347;51.828;6.466;2023-07-28T08:45:16;12.30;;;8.82;;
20375;SDS011;10347;51.828;6.466;2023-07-28T08:47:43;13.60;;;9.77;;
20375;SDS011;10347;51.828;6.466;2023-07-28T08:50:09;14.77;;;10.48;;
20375;SDS011;10347;51.828;6.466;2023-07-28T08:52:35;14.93;;;9.75;;
20375;SDS011;10347;51.828;6.466;2023-07-28T08:55:00;13.65;;;10.27;;
20375;SDS011;10347;51.828;6.466;2023-07-28T08:57:27;14.18;;;9.50;;
20375;SDS011;10347;51.828;6.466;2023-07-28T08:59:52;15.13;;;10.80;;
20375;SDS011;10347;51.828;6.466;2023-07-28T09:02:18;15.75;;;11.52;;
20375;SDS011;10347;51.828;6.466;2023-07-28T09:04:44;13.70;;;9.82;;
20375;SDS011;10347;51.828;6.466;2023-07-28T09:07:11;16.75;;;10.95;;
20375;SDS011;10347;51.828;6.466;2023-07-28T09:09:38;15.70;;;11.23;;
20375;SDS011;10347;51.828;6.466;2023-07-28T09:12:05;14.60;;;10.98;;
20375;SDS011;10347;51.828;6.466;2023-07-28T09:14:33;16.25;;;11.57;;
20375;SDS011;10347;51.828;6.466;2023-07-28T09:17:20;15.77;;;11.27;;
20375;SDS011;10347;51.828;6.466;2023-07-28T09:19:49;16.08;;;10.80;;
20375;SDS011;10347;51.828;6.466;2023-07-28T09:22:19;14.60;;;10.55;;
20375;SDS011;10347;51.828;6.466;2023-07-28T09:24:46;14.45;;;10.35;;
20375;SDS011;10347;51.828;6.466;2023-07-28T09:27:19;14.80;;;10.23;;
20375;SDS011;10347;51.828;6.466;2023-07-28T09:29:50;16.73;;;11.68;;
20375;SDS011;10347;51.828;6.466;2023-07-28T09:32:17;18.48;;;13.00;;
20375;SDS011;10347;51.828;6.466;2023-07-28T09:35:14;17.13;;;11.57;;
20375;SDS011;10347;51.828;6.466;2023-07-28T09:37:42;18.13;;;12.02;;
20375;SDS011;10347;51.828;6.466;2023-07-28T09:40:10;18.73;;;12.02;;
20375;SDS011;10347;51.828;6.466;2023-07-28T09:42:38;13.57;;;10.50;;
20375;SDS011;10347;51.828;6.466;2023-07-28T09:45:08;15.02;;;11.15;;
20375;SDS011;10347;51.828;6.466;2023-07-28T09:47:35;13.82;;;10.55;;
20375;SDS011;10347;51.828;6.466;2023-07-28T09:50:03;16.08;;;10.52;;
20375;SDS011;10347;51.828;6.466;2023-07-28T09:52:34;14.13;;;9.75;;
20375;SDS011;10347;51.828;6.466;2023-07-28T09:55:05;13.82;;;9.40;;
20375;SDS011;10347;51.828;6.466;2023-07-28T09:57:45;12.38;;;9.27;;
20375;SDS011;10347;51.828;6.466;2023-07-28T10:00:20;11.15;;;8.85;;
20375;SDS011;10347;51.828;6.466;2023-07-28T10:02:47;11.90;;;9.05;;
20375;SDS011;10347;51.828;6.466;2023-07-28T10:05:13;12.15;;;9.00;;
20375;SDS011;10347;51.828;6.466;2023-07-28T10:07:40;11.75;;;8.35;;
20375;SDS011;10347;51.828;6.466;2023-07-28T10:10:07;10.18;;;8.00;;
20375;SDS011;10347;51.828;6.466;2023-07-28T10:12:42;9.05;;;7.60;;
20375;SDS011;10347;51.828;6.466;2023-07-28T10:15:18;8.65;;;7.75;;
20375;SDS011;10347;51.828;6.466;2023-07-28T10:17:50;9.60;;;8.18;;
20375;SDS011;10347;51.828;6.466;2023-07-28T10:20:29;8.32;;;6.95;;
20375;SDS011;10347;51.828;6.466;2023-07-28T10:23:05;7.25;;;6.20;;
20375;SDS011;10347;51.828;6.466;2023-07-28T10:25:33;5.55;;;5.05;;
20375;SDS011;10347;51.828;6.466;2023-07-28T10:28:03;6.05;;;5.47;;
20375;SDS011;10347;51.828;6.466;2023-07-28T10:30:52;5.53;;;5.03;;
20375;SDS011;10347;51.828;6.466;2023-07-28T10:33:38;7.28;;;6.13;;
20375;SDS011;10347;51.828;6.466;2023-07-28T10:36:14;6.07;;;5.50;;
20375;SDS011;10347;51.828;6.466;2023-07-28T10:39:05;5.60;;;5.10;;
20375;SDS011;10347;51.828;6.466;2023-07-28T10:41:38;7.47;;;5.75;;
20375;SDS011;10347;51.828;6.466;2023-07-28T10:44:04;7.22;;;6.22;;
20375;SDS011;10347;51.828;6.466;2023-07-28T10:46:30;6.28;;;5.68;;
20375;SDS011;10347;51.828;6.466;2023-07-28T10:48:57;6.18;;;5.45;;
20375;SDS011;10347;51.828;6.466;2023-07-28T10:51:30;5.35;;;4.93;;
20375;SDS011;10347;51.828;6.466;2023-07-28T10:53:58;5.72;;;5.20;;
20375;SDS011;10347;51.828;6.466;2023-07-28T10:56:24;5.72;;;5.20;;
20375;SDS011;10347;51.828;6.466;2023-07-28T10:58:57;5.88;;;4.95;;
20375;SDS011;10347;51.828;6.466;2023-07-28T11:04:15;4.93;;;4.40;;
20375;SDS011;10347;51.828;6.466;2023-07-28T11:06:43;4.45;;;4.05;;
20375;SDS011;10347;51.828;6.466;2023-07-28T11:09:13;5.05;;;4.40;;
20375;SDS011;10347;51.828;6.466;2023-07-28T11:11:41;5.57;;;4.28;;
20375;SDS011;10347;51.828;6.466;2023-07-28T11:14:07;5.47;;;4.93;;
20375;SDS011;10347;51.828;6.466;2023-07-28T11:16:35;4.85;;;4.35;;
20375;SDS011;10347;51.828;6.466;2023-07-28T11:19:01;7.45;;;5.13;;
20375;SDS011;10347;51.828;6.466;2023-07-28T11:21:28;5.60;;;5.00;;
20375;SDS011;10347;51.828;6.466;2023-07-28T11:23:54;5.88;;;5.30;;
20375;SDS011;10347;51.828;6.466;2023-07-28T11:26:22;5.90;;;5.38;;
20375;SDS011;10347;51.828;6.466;2023-07-28T11:28:48;6.10;;;4.78;;
20375;SDS011;10347;51.828;6.466;2023-07-28T11:31:13;5.28;;;4.88;;
20375;SDS011;10347;51.828;6.466;2023-07-28T11:33:39;5.95;;;5.40;;
20375;SDS011;10347;51.828;6.466;2023-07-28T11:36:06;5.95;;;5.25;;
20375;SDS011;10347;51.828;6.466;2023-07-28T11:38:32;5.35;;;4.85;;
20375;SDS011;10347;51.828;6.466;2023-07-28T11:41:00;6.40;;;5.00;;
20375;SDS011;10347;51.828;6.466;2023-07-28T11:43:27;5.75;;;5.25;;
20375;SDS011;10347;51.828;6.466;2023-07-28T11:45:53;5.50;;;5.00;;
20375;SDS011;10347;51.828;6.466;2023-07-28T11:48:18;5.20;;;4.68;;
20375;SDS011;10347;51.828;6.466;2023-07-28T11:50:44;5.47;;;4.97;;
20375;SDS011;10347;51.828;6.466;2023-07-28T11:53:10;6.00;;;5.50;;
20375;SDS011;10347;51.828;6.466;2023-07-28T11:55:37;6.13;;;5.53;;
20375;SDS011;10347;51.828;6.466;2023-07-28T11:58:06;6.00;;;5.50;;
20375;SDS011;10347;51.828;6.466;2023-07-28T12:00:33;6.38;;;5.70;;
20375;SDS011;10347;51.828;6.466;2023-07-28T12:03:01;5.97;;;4.97;;
20375;SDS011;10347;51.828;6.466;2023-07-28T12:05:41;4.93;;;4.47;;
20375;SDS011;10347;51.828;6.466;2023-07-28T12:08:35;6.57;;;4.85;;
20375;SDS011;10347;51.828;6.466;2023-07-28T12:11:01;5.72;;;5.22;;
20375;SDS011;10347;51.828;6.466;2023-07-28T12:13:27;5.65;;;5.13;;
20375;SDS011;10347;51.828;6.466;2023-07-28T12:15:53;6.25;;;5.45;;
20375;SDS011;10347;51.828;6.466;2023-07-28T12:18:19;5.07;;;4.68;;
20375;SDS011;10347;51.828;6.466;2023-07-28T12:20:46;4.70;;;4.30;;
20375;SDS011;10347;51.828;6.466;2023-07-28T12:23:13;5.32;;;4.93;;
20375;SDS011;10347;51.828;6.466;2023-07-28T12:25:40;5.53;;;5.07;;
20375;SDS011;10347;51.828;6.466;2023-07-28T12:28:06;4.97;;;4.57;;
20375;SDS011;10347;51.828;6.466;2023-07-28T12:30:32;5.55;;;5.05;;
20375;SDS011;10347;51.828;6.466;2023-07-28T12:32:58;4.90;;;4.47;;
20375;SDS011;10347;51.828;6.466;2023-07-28T12:35:25;4.50;;;4.07;;
20375;SDS011;10347;51.828;6.466;2023-07-28T12:37:55;4.75;;;4.35;;
20375;SDS011;10347;51.828;6.466;2023-07-28T12:40:21;4.55;;;4.20;;
20375;SDS011;10347;51.828;6.466;2023-07-28T12:42:47;5.10;;;4.70;;
20375;SDS011;10347;51.828;6.466;2023-07-28T12:45:13;4.53;;;4.22;;
20375;SDS011;10347;51.828;6.466;2023-07-28T12:47:40;4.93;;;4.50;;
20375;SDS011;10347;51.828;6.466;2023-07-28T12:50:07;4.88;;;4.45;;
20375;SDS011;10347;51.828;6.466;2023-07-28T12:52:33;4.70;;;4.30;;
20375;SDS011;10347;51.828;6.466;2023-07-28T12:54:59;5.40;;;4.90;;
20375;SDS011;10347;51.828;6.466;2023-07-28T12:57:24;4.80;;;4.40;;
20375;SDS011;10347;51.828;6.466;2023-07-28T12:59:50;5.10;;;4.45;;
20375;SDS011;10347;51.828;6.466;2023-07-28T13:02:16;4.75;;;4.35;;
20375;SDS011;10347;51.828;6.466;2023-07-28T13:04:42;4.57;;;4.18;;
20375;SDS011;10347;51.828;6.466;2023-07-28T13:07:08;5.00;;;4.60;;
20375;SDS011;10347;51.828;6.466;2023-07-28T13:09:34;4.57;;;4.22;;
20375;SDS011;10347;51.828;6.466;2023-07-28T13:11:59;4.05;;;3.78;;
20375;SDS011;10347;51.828;6.466;2023-07-28T13:14:25;4.53;;;4.22;;
20375;SDS011;10347;51.828;6.466;2023-07-28T13:16:50;4.72;;;4.43;;
20375;SDS011;10347;51.828;6.466;2023-07-28T13:19:16;4.68;;;4.28;;
20375;SDS011;10347;51.828;6.466;2023-07-28T13:21:41;4.35;;;4.05;;
20375;SDS011;10347;51.828;6.466;2023-07-28T13:24:07;4.82;;;4.30;;
20375;SDS011;10347;51.828;6.466;2023-07-28T13:26:32;4.32;;;4.03;;
20375;SDS011;10347;51.828;6.466;2023-07-28T13:28:58;5.40;;;4.90;;
20375;SDS011;10347;51.828;6.466;2023-07-28T13:31:26;5.18;;;4.72;;
20375;SDS011;10347;51.828;6.466;2023-07-28T13:33:52;5.32;;;4.93;;
20375;SDS011;10347;51.828;6.466;2023-07-28T13:36:18;4.53;;;4.22;;
20375;SDS011;10347;51.828;6.466;2023-07-28T13:38:43;3.72;;;3.53;;
20375;SDS011;10347;51.828;6.466;2023-07-28T13:41:09;3.40;;;3.20;;
20375;SDS011;10347;51.828;6.466;2023-07-28T13:43:35;3.65;;;3.35;;
20375;SDS011;10347;51.828;6.466;2023-07-28T13:46:03;3.30;;;3.10;;
20375;SDS011;10347;51.828;6.466;2023-07-28T13:48:29;2.90;;;2.80;;
20375;SDS011;10347;51.828;6.466;2023-07-28T13:50:55;3.50;;;3.30;;
20375;SDS011;10347;51.828;6.466;2023-07-28T13:53:21;3.05;;;2.85;;
20375;SDS011;10347;51.828;6.466;2023-07-28T13:55:47;3.00;;;2.80;;
20375;SDS011;10347;51.828;6.466;2023-07-28T13:58:13;3.13;;;2.97;;
20375;SDS011;10347;51.828;6.466;2023-07-28T14:00:38;3.00;;;2.90;;
20375;SDS011;10347;51.828;6.466;2023-07-28T14:03:04;2.80;;;2.70;;
20375;SDS011;10347;51.828;6.466;2023-07-28T14:05:30;2.40;;;2.30;;
20375;SDS011;10347;51.828;6.466;2023-07-28T14:07:55;2.33;;;2.22;;
20375;SDS011;10347;51.828;6.466;2023-07-28T14:10:21;2.75;;;2.38;;
20375;SDS011;10347;51.828;6.466;2023-07-28T14:12:46;2.33;;;2.22;;
20375;SDS011;10347;51.828;6.466;2023-07-28T14:15:12;2.30;;;2.20;;
20375;SDS011;10347;51.828;6.466;2023-07-28T14:17:37;2.60;;;2.20;;
20375;SDS011;10347;51.828;6.466;2023-07-28T14:20:03;1.92;;;1.83;;
20375;SDS011;10347;51.828;6.466;2023-07-28T14:22:29;2.20;;;2.00;;
20375;SDS011;10347;51.828;6.466;2023-07-28T14:24:54;2.10;;;2.00;;
20375;SDS011;10347;51.828;6.466;2023-07-28T14:27:20;2.30;;;2.20;;
20375;SDS011;10347;51.828;6.466;2023-07-28T14:29:45;2.00;;;1.90;;
20375;SDS011;10347;51.828;6.466;2023-07-28T14:32:11;1.95;;;1.85;;
20375;SDS011;10347;51.828;6.466;2023-07-28T14:34:36;1.77;;;1.65;;
20375;SDS011;10347;51.828;6.466;2023-07-28T14:37:04;1.60;;;1.60;;
20375;SDS011;10347;51.828;6.466;2023-07-28T14:39:33;1.63;;;1.52;;
20375;SDS011;10347;51.828;6.466;2023-07-28T14:41:59;2.90;;;1.83;;
20375;SDS011;10347;51.828;6.466;2023-07-28T14:44:25;2.25;;;1.40;;